sensor_id;sensor_type;location;lat;lon;timestamp;temperature;humidity
4306;DHT22;2166;49.926;8.608;2022-10-15T00:02:01;15.00;84.60
4306;DHT22;2166;49.926;8.608;2022-10-15T00:04:31;14.90;84.60
4306;DHT22;2166;49.926;8.608;2022-10-15T00:07:02;14.90;84.70
4306;DHT22;2166;49.926;8.608;2022-10-15T00:09:32;14.90;84.80
4306;DHT22;2166;49.926;8.608;2022-10-15T00:12:00;15.00;84.80
4306;DHT22;2166;49.926;8.608;2022-10-15T00:14:28;15.00;84.80
4306;DHT22;2166;49.926;8.608;2022-10-15T00:16:57;15.00;84.80
4306;DHT22;2166;49.926;8.608;2022-10-15T00:19:26;15.00;84.80
4306;DHT22;2166;49.926;8.608;2022-10-15T00:21:56;15.00;84.80
4306;DHT22;2166;49.926;8.608;2022-10-15T00:24:26;15.10;84.70
4306;DHT22;2166;49.926;8.608;2022-10-15T00:26:53;15.10;84.70
4306;DHT22;2166;49.926;8.608;2022-10-15T00:29:21;15.10;84.60
4306;DHT22;2166;49.926;8.608;2022-10-15T00:31:52;15.10;84.50
4306;DHT22;2166;49.926;8.608;2022-10-15T00:34:21;15.10;84.60
4306;DHT22;2166;49.926;8.608;2022-10-15T00:36:50;15.10;84.60
4306;DHT22;2166;49.926;8.608;2022-10-15T00:39:23;15.10;84.50
4306;DHT22;2166;49.926;8.608;2022-10-15T00:41:51;15.10;84.50
4306;DHT22;2166;49.926;8.608;2022-10-15T00:47:08;15.10;84.60
4306;DHT22;2166;49.926;8.608;2022-10-15T00:49:39;15.20;84.60
4306;DHT22;2166;49.926;8.608;2022-10-15T00:52:09;15.20;84.50
4306;DHT22;2166;49.926;8.608;2022-10-15T00:54:39;15.20;84.50
4306;DHT22;2166;49.926;8.608;2022-10-15T00:57:07;15.20;84.50
4306;DHT22;2166;49.926;8.608;2022-10-15T00:59:38;15.20;84.40
4306;DHT22;2166;49.926;8.608;2022-10-15T01:02:09;15.20;84.50
4306;DHT22;2166;49.926;8.608;2022-10-15T01:04:37;15.30;84.50
4306;DHT22;2166;49.926;8.608;2022-10-15T01:07:05;15.30;84.50
4306;DHT22;2166;49.926;8.608;2022-10-15T01:09:39;15.30;84.40
4306;DHT22;2166;49.926;8.608;2022-10-15T01:12:09;15.30;84.40
4306;DHT22;2166;49.926;8.608;2022-10-15T01:14:40;15.30;84.40
4306;DHT22;2166;49.926;8.608;2022-10-15T01:17:14;15.30;84.30
4306;DHT22;2166;49.926;8.608;2022-10-15T01:19:52;15.30;84.30
4306;DHT22;2166;49.926;8.608;2022-10-15T01:22:30;15.40;84.40
4306;DHT22;2166;49.926;8.608;2022-10-15T01:25:06;15.40;84.20
4306;DHT22;2166;49.926;8.608;2022-10-15T01:27:40;15.40;84.20
4306;DHT22;2166;49.926;8.608;2022-10-15T01:30:18;15.50;84.10
4306;DHT22;2166;49.926;8.608;2022-10-15T01:32:56;15.50;84.10
4306;DHT22;2166;49.926;8.608;2022-10-15T01:35:28;15.50;84.00
4306;DHT22;2166;49.926;8.608;2022-10-15T01:38:00;15.50;84.00
4306;DHT22;2166;49.926;8.608;2022-10-15T01:40:31;15.50;84.00
4306;DHT22;2166;49.926;8.608;2022-10-15T01:43:01;15.50;83.90
4306;DHT22;2166;49.926;8.608;2022-10-15T01:45:42;15.50;84.00
4306;DHT22;2166;49.926;8.608;2022-10-15T01:48:31;15.50;84.00
4306;DHT22;2166;49.926;8.608;2022-10-15T01:51:01;15.50;84.00
4306;DHT22;2166;49.926;8.608;2022-10-15T01:53:29;15.50;83.90
4306;DHT22;2166;49.926;8.608;2022-10-15T01:56:01;15.60;84.00
4306;DHT22;2166;49.926;8.608;2022-10-15T01:58:30;15.60;84.00
4306;DHT22;2166;49.926;8.608;2022-10-15T02:01:00;15.50;83.90
4306;DHT22;2166;49.926;8.608;2022-10-15T02:03:28;15.50;84.00
4306;DHT22;2166;49.926;8.608;2022-10-15T02:05:58;15.50;84.10
4306;DHT22;2166;49.926;8.608;2022-10-15T02:08:27;15.50;84.10
4306;DHT22;2166;49.926;8.608;2022-10-15T02:10:58;15.60;84.10
4306;DHT22;2166;49.926;8.608;2022-10-15T02:13:31;15.60;84.00
4306;DHT22;2166;49.926;8.608;2022-10-15T02:16:03;15.60;83.90
4306;DHT22;2166;49.926;8.608;2022-10-15T02:18:35;15.60;83.90
4306;DHT22;2166;49.926;8.608;2022-10-15T02:21:06;15.70;83.90
4306;DHT22;2166;49.926;8.608;2022-10-15T02:23:35;15.70;83.80
4306;DHT22;2166;49.926;8.608;2022-10-15T02:26:05;15.60;83.80
4306;DHT22;2166;49.926;8.608;2022-10-15T02:28:35;15.70;83.90
4306;DHT22;2166;49.926;8.608;2022-10-15T02:31:05;15.70;83.80
4306;DHT22;2166;49.926;8.608;2022-10-15T02:33:35;15.70;83.80
4306;DHT22;2166;49.926;8.608;2022-10-15T02:36:04;15.70;83.90
4306;DHT22;2166;49.926;8.608;2022-10-15T02:38:33;15.70;83.80
4306;DHT22;2166;49.926;8.608;2022-10-15T02:41:01;15.70;83.80
4306;DHT22;2166;49.926;8.608;2022-10-15T02:43:29;15.70;83.80
4306;DHT22;2166;49.926;8.608;2022-10-15T02:45:58;15.70;83.80
4306;DHT22;2166;49.926;8.608;2022-10-15T02:48:27;15.70;83.80
4306;DHT22;2166;49.926;8.608;2022-10-15T02:50:55;15.60;83.80
4306;DHT22;2166;49.926;8.608;2022-10-15T02:53:23;15.60;83.90
4306;DHT22;2166;49.926;8.608;2022-10-15T02:55:51;15.70;83.90
4306;DHT22;2166;49.926;8.608;2022-10-15T02:58:19;15.70;83.90
4306;DHT22;2166;49.926;8.608;2022-10-15T03:00:47;15.70;83.90
4306;DHT22;2166;49.926;8.608;2022-10-15T03:03:16;15.80;83.90
4306;DHT22;2166;49.926;8.608;2022-10-15T03:05:45;15.80;83.90
4306;DHT22;2166;49.926;8.608;2022-10-15T03:08:14;15.80;83.70
4306;DHT22;2166;49.926;8.608;2022-10-15T03:10:42;15.70;83.70
4306;DHT22;2166;49.926;8.608;2022-10-15T03:13:12;15.70;83.70
4306;DHT22;2166;49.926;8.608;2022-10-15T03:15:46;15.70;83.70
4306;DHT22;2166;49.926;8.608;2022-10-15T03:18:15;15.70;83.80
4306;DHT22;2166;49.926;8.608;2022-10-15T03:20:47;15.70;83.80
4306;DHT22;2166;49.926;8.608;2022-10-15T03:23:19;15.70;83.80
4306;DHT22;2166;49.926;8.608;2022-10-15T03:25:50;15.70;83.70
4306;DHT22;2166;49.926;8.608;2022-10-15T03:28:21;15.60;83.80
4306;DHT22;2166;49.926;8.608;2022-10-15T03:30:49;15.60;83.90
4306;DHT22;2166;49.926;8.608;2022-10-15T03:33:18;15.70;84.00
4306;DHT22;2166;49.926;8.608;2022-10-15T03:35:52;15.70;84.00
4306;DHT22;2166;49.926;8.608;2022-10-15T03:38:20;15.70;83.90
4306;DHT22;2166;49.926;8.608;2022-10-15T03:40:50;15.80;83.90
4306;DHT22;2166;49.926;8.608;2022-10-15T03:43:30;15.80;83.80
4306;DHT22;2166;49.926;8.608;2022-10-15T03:46:03;15.80;83.80
4306;DHT22;2166;49.926;8.608;2022-10-15T03:48:35;15.80;83.70
4306;DHT22;2166;49.926;8.608;2022-10-15T03:51:05;15.80;83.80
4306;DHT22;2166;49.926;8.608;2022-10-15T03:53:32;15.80;83.70
4306;DHT22;2166;49.926;8.608;2022-10-15T03:56:04;15.80;83.60
4306;DHT22;2166;49.926;8.608;2022-10-15T03:58:36;15.90;83.50
4306;DHT22;2166;49.926;8.608;2022-10-15T04:01:08;15.80;83.60
4306;DHT22;2166;49.926;8.608;2022-10-15T04:03:37;15.90;83.50
4306;DHT22;2166;49.926;8.608;2022-10-15T04:06:06;15.90;83.50
4306;DHT22;2166;49.926;8.608;2022-10-15T04:08:35;15.90;83.40
4306;DHT22;2166;49.926;8.608;2022-10-15T04:11:17;15.90;83.40
4306;DHT22;2166;49.926;8.608;2022-10-15T04:13:52;15.90;84.10
4306;DHT22;2166;49.926;8.608;2022-10-15T04:16:20;15.90;84.20
4306;DHT22;2166;49.926;8.608;2022-10-15T04:18:48;15.90;84.20
4306;DHT22;2166;49.926;8.608;2022-10-15T04:21:17;15.90;84.20
4306;DHT22;2166;49.926;8.608;2022-10-15T04:23:53;15.90;84.20
4306;DHT22;2166;49.926;8.608;2022-10-15T04:26:27;15.80;84.30
4306;DHT22;2166;49.926;8.608;2022-10-15T04:28:58;15.80;83.70
4306;DHT22;2166;49.926;8.608;2022-10-15T04:31:27;15.80;83.60
4306;DHT22;2166;49.926;8.608;2022-10-15T04:33:56;15.80;83.60
4306;DHT22;2166;49.926;8.608;2022-10-15T04:36:26;15.80;83.60
4306;DHT22;2166;49.926;8.608;2022-10-15T04:39:06;15.80;83.70
4306;DHT22;2166;49.926;8.608;2022-10-15T04:41:41;15.70;83.70
4306;DHT22;2166;49.926;8.608;2022-10-15T04:44:12;15.70;83.70
4306;DHT22;2166;49.926;8.608;2022-10-15T04:46:46;15.70;83.80
4306;DHT22;2166;49.926;8.608;2022-10-15T04:49:25;15.80;83.80
4306;DHT22;2166;49.926;8.608;2022-10-15T04:51:55;15.80;83.80
4306;DHT22;2166;49.926;8.608;2022-10-15T04:54:29;15.80;83.60
4306;DHT22;2166;49.926;8.608;2022-10-15T04:57:01;15.80;83.70
4306;DHT22;2166;49.926;8.608;2022-10-15T04:59:29;15.80;83.70
4306;DHT22;2166;49.926;8.608;2022-10-15T05:02:26;15.80;83.60
4306;DHT22;2166;49.926;8.608;2022-10-15T05:05:08;15.80;84.20
4306;DHT22;2166;49.926;8.608;2022-10-15T05:07:49;15.70;84.20
4306;DHT22;2166;49.926;8.608;2022-10-15T05:10:17;15.70;84.30
4306;DHT22;2166;49.926;8.608;2022-10-15T05:12:45;15.70;84.30
4306;DHT22;2166;49.926;8.608;2022-10-15T05:15:26;15.70;84.30
4306;DHT22;2166;49.926;8.608;2022-10-15T05:17:55;15.70;84.30
4306;DHT22;2166;49.926;8.608;2022-10-15T05:20:29;15.60;84.30
4306;DHT22;2166;49.926;8.608;2022-10-15T05:22:59;15.60;84.40
4306;DHT22;2166;49.926;8.608;2022-10-15T05:25:31;15.60;84.40
4306;DHT22;2166;49.926;8.608;2022-10-15T05:27:59;15.60;84.30
4306;DHT22;2166;49.926;8.608;2022-10-15T05:30:27;15.70;84.40
4306;DHT22;2166;49.926;8.608;2022-10-15T05:32:56;15.60;84.40
4306;DHT22;2166;49.926;8.608;2022-10-15T05:35:24;15.70;84.40
4306;DHT22;2166;49.926;8.608;2022-10-15T05:37:59;15.60;84.20
4306;DHT22;2166;49.926;8.608;2022-10-15T05:40:27;15.60;84.20
4306;DHT22;2166;49.926;8.608;2022-10-15T05:43:08;15.60;84.20
4306;DHT22;2166;49.926;8.608;2022-10-15T05:45:36;15.60;84.20
4306;DHT22;2166;49.926;8.608;2022-10-15T05:48:05;15.60;84.20
4306;DHT22;2166;49.926;8.608;2022-10-15T05:50:34;15.60;84.20
4306;DHT22;2166;49.926;8.608;2022-10-15T05:53:07;15.60;84.20
4306;DHT22;2166;49.926;8.608;2022-10-15T05:55:42;15.60;84.20
4306;DHT22;2166;49.926;8.608;2022-10-15T05:58:10;15.70;84.20
4306;DHT22;2166;49.926;8.608;2022-10-15T06:00:38;15.60;84.20
4306;DHT22;2166;49.926;8.608;2022-10-15T06:03:08;15.70;84.20
4306;DHT22;2166;49.926;8.608;2022-10-15T06:05:37;15.70;84.20
4306;DHT22;2166;49.926;8.608;2022-10-15T06:08:05;15.60;84.20
4306;DHT22;2166;49.926;8.608;2022-10-15T06:10:35;15.70;84.30
4306;DHT22;2166;49.926;8.608;2022-10-15T06:13:03;15.70;84.30
4306;DHT22;2166;49.926;8.608;2022-10-15T06:15:31;15.60;84.30
4306;DHT22;2166;49.926;8.608;2022-10-15T06:18:00;15.60;84.40
4306;DHT22;2166;49.926;8.608;2022-10-15T06:20:28;15.60;84.40
4306;DHT22;2166;49.926;8.608;2022-10-15T06:23:00;15.60;83.80
4306;DHT22;2166;49.926;8.608;2022-10-15T06:25:29;15.60;83.90
4306;DHT22;2166;49.926;8.608;2022-10-15T06:28:00;15.60;83.80
4306;DHT22;2166;49.926;8.608;2022-10-15T06:30:40;15.60;83.70
4306;DHT22;2166;49.926;8.608;2022-10-15T06:33:08;15.70;83.80
4306;DHT22;2166;49.926;8.608;2022-10-15T06:35:37;15.70;83.80
4306;DHT22;2166;49.926;8.608;2022-10-15T06:38:06;15.80;83.80
4306;DHT22;2166;49.926;8.608;2022-10-15T06:40:34;15.70;83.70
4306;DHT22;2166;49.926;8.608;2022-10-15T06:43:04;15.70;83.70
4306;DHT22;2166;49.926;8.608;2022-10-15T06:45:33;15.70;83.70
4306;DHT22;2166;49.926;8.608;2022-10-15T06:48:05;15.60;83.70
4306;DHT22;2166;49.926;8.608;2022-10-15T06:50:34;15.60;83.80
4306;DHT22;2166;49.926;8.608;2022-10-15T06:53:03;15.60;83.90
4306;DHT22;2166;49.926;8.608;2022-10-15T06:55:31;15.60;83.90
4306;DHT22;2166;49.926;8.608;2022-10-15T06:57:59;15.60;84.00
4306;DHT22;2166;49.926;8.608;2022-10-15T07:00:29;15.60;83.90
4306;DHT22;2166;49.926;8.608;2022-10-15T07:03:02;15.50;84.00
4306;DHT22;2166;49.926;8.608;2022-10-15T07:05:30;15.60;84.00
4306;DHT22;2166;49.926;8.608;2022-10-15T07:07:59;15.60;84.00
4306;DHT22;2166;49.926;8.608;2022-10-15T07:10:28;15.60;84.00
4306;DHT22;2166;49.926;8.608;2022-10-15T07:12:58;15.70;84.00
4306;DHT22;2166;49.926;8.608;2022-10-15T07:15:26;15.80;83.90
4306;DHT22;2166;49.926;8.608;2022-10-15T07:17:55;15.80;83.80
4306;DHT22;2166;49.926;8.608;2022-10-15T07:20:27;15.90;83.80
4306;DHT22;2166;49.926;8.608;2022-10-15T07:22:57;15.90;83.60
4306;DHT22;2166;49.926;8.608;2022-10-15T07:25:29;15.90;83.60
4306;DHT22;2166;49.926;8.608;2022-10-15T07:27:56;16.00;83.50
4306;DHT22;2166;49.926;8.608;2022-10-15T07:30:24;16.00;83.50
4306;DHT22;2166;49.926;8.608;2022-10-15T07:32:55;16.10;83.60
4306;DHT22;2166;49.926;8.608;2022-10-15T07:35:23;16.20;83.50
4306;DHT22;2166;49.926;8.608;2022-10-15T07:37:52;16.40;84.20
4306;DHT22;2166;49.926;8.608;2022-10-15T07:40:20;16.40;83.90
4306;DHT22;2166;49.926;8.608;2022-10-15T07:42:51;16.50;83.70
4306;DHT22;2166;49.926;8.608;2022-10-15T07:45:20;16.50;83.80
4306;DHT22;2166;49.926;8.608;2022-10-15T07:47:48;16.50;83.80
4306;DHT22;2166;49.926;8.608;2022-10-15T07:50:18;16.50;83.70
4306;DHT22;2166;49.926;8.608;2022-10-15T07:52:46;16.50;83.80
4306;DHT22;2166;49.926;8.608;2022-10-15T07:55:14;16.60;84.10
4306;DHT22;2166;49.926;8.608;2022-10-15T07:57:42;16.70;84.10
4306;DHT22;2166;49.926;8.608;2022-10-15T08:00:10;16.70;83.90
4306;DHT22;2166;49.926;8.608;2022-10-15T08:02:38;16.70;83.90
4306;DHT22;2166;49.926;8.608;2022-10-15T08:05:06;16.70;83.90
4306;DHT22;2166;49.926;8.608;2022-10-15T08:07:36;16.60;83.80
4306;DHT22;2166;49.926;8.608;2022-10-15T08:10:09;16.60;83.90
4306;DHT22;2166;49.926;8.608;2022-10-15T08:12:38;16.60;84.10
4306;DHT22;2166;49.926;8.608;2022-10-15T08:15:07;16.80;83.60
4306;DHT22;2166;49.926;8.608;2022-10-15T08:17:35;16.90;83.50
4306;DHT22;2166;49.926;8.608;2022-10-15T08:20:03;17.00;84.10
4306;DHT22;2166;49.926;8.608;2022-10-15T08:22:35;17.00;83.70
4306;DHT22;2166;49.926;8.608;2022-10-15T08:25:06;17.00;83.50
4306;DHT22;2166;49.926;8.608;2022-10-15T08:27:34;17.00;83.40
4306;DHT22;2166;49.926;8.608;2022-10-15T08:30:03;17.10;83.30
4306;DHT22;2166;49.926;8.608;2022-10-15T08:32:31;17.30;83.20
4306;DHT22;2166;49.926;8.608;2022-10-15T08:34:59;17.40;82.70
4306;DHT22;2166;49.926;8.608;2022-10-15T08:37:32;17.60;82.50
4306;DHT22;2166;49.926;8.608;2022-10-15T08:40:00;17.60;82.10
4306;DHT22;2166;49.926;8.608;2022-10-15T08:42:30;17.80;82.10
4306;DHT22;2166;49.926;8.608;2022-10-15T08:45:00;18.00;81.50
4306;DHT22;2166;49.926;8.608;2022-10-15T08:47:31;18.10;81.30
4306;DHT22;2166;49.926;8.608;2022-10-15T08:50:11;18.30;81.20
4306;DHT22;2166;49.926;8.608;2022-10-15T08:52:43;18.20;80.80
4306;DHT22;2166;49.926;8.608;2022-10-15T08:55:13;18.10;81.20
4306;DHT22;2166;49.926;8.608;2022-10-15T08:57:44;18.00;81.20
4306;DHT22;2166;49.926;8.608;2022-10-15T09:00:16;18.00;81.20
4306;DHT22;2166;49.926;8.608;2022-10-15T09:02:47;18.00;81.20
4306;DHT22;2166;49.926;8.608;2022-10-15T09:05:25;18.20;81.30
4306;DHT22;2166;49.926;8.608;2022-10-15T09:07:55;18.10;80.90
4306;DHT22;2166;49.926;8.608;2022-10-15T09:10:30;18.10;80.80
4306;DHT22;2166;49.926;8.608;2022-10-15T09:13:03;18.10;81.00
4306;DHT22;2166;49.926;8.608;2022-10-15T09:15:33;18.20;81.00
4306;DHT22;2166;49.926;8.608;2022-10-15T09:18:04;18.30;80.90
4306;DHT22;2166;49.926;8.608;2022-10-15T09:20:33;18.50;80.60
4306;DHT22;2166;49.926;8.608;2022-10-15T09:23:02;18.40;80.40
4306;DHT22;2166;49.926;8.608;2022-10-15T09:25:31;18.30;80.40
4306;DHT22;2166;49.926;8.608;2022-10-15T09:28:08;18.20;80.40
4306;DHT22;2166;49.926;8.608;2022-10-15T09:30:38;18.10;80.50
4306;DHT22;2166;49.926;8.608;2022-10-15T09:33:10;18.00;80.50
4306;DHT22;2166;49.926;8.608;2022-10-15T09:35:42;18.00;80.80
4306;DHT22;2166;49.926;8.608;2022-10-15T09:38:20;18.00;80.80
4306;DHT22;2166;49.926;8.608;2022-10-15T09:40:53;18.10;80.60
4306;DHT22;2166;49.926;8.608;2022-10-15T09:43:25;18.10;80.60
4306;DHT22;2166;49.926;8.608;2022-10-15T09:45:57;18.10;80.80
4306;DHT22;2166;49.926;8.608;2022-10-15T09:48:29;18.10;81.00
4306;DHT22;2166;49.926;8.608;2022-10-15T09:50:59;18.30;80.70
4306;DHT22;2166;49.926;8.608;2022-10-15T09:53:34;18.40;80.60
4306;DHT22;2166;49.926;8.608;2022-10-15T09:56:07;18.80;80.30
4306;DHT22;2166;49.926;8.608;2022-10-15T09:58:43;19.20;79.30
4306;DHT22;2166;49.926;8.608;2022-10-15T10:01:18;19.30;79.20
4306;DHT22;2166;49.926;8.608;2022-10-15T10:03:49;19.50;79.10
4306;DHT22;2166;49.926;8.608;2022-10-15T10:06:18;19.50;78.80
4306;DHT22;2166;49.926;8.608;2022-10-15T10:08:47;19.50;78.60
4306;DHT22;2166;49.926;8.608;2022-10-15T10:11:17;19.30;78.70
4306;DHT22;2166;49.926;8.608;2022-10-15T10:13:50;19.00;78.90
4306;DHT22;2166;49.926;8.608;2022-10-15T10:16:19;18.90;79.40
4306;DHT22;2166;49.926;8.608;2022-10-15T10:19:02;18.80;79.50
4306;DHT22;2166;49.926;8.608;2022-10-15T10:21:31;18.60;79.60
4306;DHT22;2166;49.926;8.608;2022-10-15T10:26:42;18.60;80.40
4306;DHT22;2166;49.926;8.608;2022-10-15T10:29:12;18.60;80.30
4306;DHT22;2166;49.926;8.608;2022-10-15T10:32:00;18.50;80.30
4306;DHT22;2166;49.926;8.608;2022-10-15T10:34:35;18.20;80.80
4306;DHT22;2166;49.926;8.608;2022-10-15T10:37:03;18.10;81.30
4306;DHT22;2166;49.926;8.608;2022-10-15T10:39:33;17.90;81.60
4306;DHT22;2166;49.926;8.608;2022-10-15T10:42:03;17.70;81.90
4306;DHT22;2166;49.926;8.608;2022-10-15T10:44:34;17.50;82.20
4306;DHT22;2166;49.926;8.608;2022-10-15T10:47:04;17.50;82.20
4306;DHT22;2166;49.926;8.608;2022-10-15T10:49:35;17.50;82.40
4306;DHT22;2166;49.926;8.608;2022-10-15T10:52:11;17.40;82.40
4306;DHT22;2166;49.926;8.608;2022-10-15T10:54:45;17.30;82.40
4306;DHT22;2166;49.926;8.608;2022-10-15T10:57:14;17.30;82.60
4306;DHT22;2166;49.926;8.608;2022-10-15T10:59:48;17.20;82.60
4306;DHT22;2166;49.926;8.608;2022-10-15T11:02:17;17.30;82.70
4306;DHT22;2166;49.926;8.608;2022-10-15T11:04:45;17.50;82.50
4306;DHT22;2166;49.926;8.608;2022-10-15T11:07:14;17.60;82.20
4306;DHT22;2166;49.926;8.608;2022-10-15T11:09:50;17.80;82.20
4306;DHT22;2166;49.926;8.608;2022-10-15T11:12:29;18.10;81.70
4306;DHT22;2166;49.926;8.608;2022-10-15T11:15:00;18.30;81.00
4306;DHT22;2166;49.926;8.608;2022-10-15T11:17:34;18.40;80.80
4306;DHT22;2166;49.926;8.608;2022-10-15T11:20:11;18.70;80.50
4306;DHT22;2166;49.926;8.608;2022-10-15T11:23:07;18.70;80.10
4306;DHT22;2166;49.926;8.608;2022-10-15T11:25:42;19.30;79.90
4306;DHT22;2166;49.926;8.608;2022-10-15T11:28:26;19.40;79.00
4306;DHT22;2166;49.926;8.608;2022-10-15T11:31:02;19.50;79.00
4306;DHT22;2166;49.926;8.608;2022-10-15T11:33:39;19.30;79.00
4306;DHT22;2166;49.926;8.608;2022-10-15T11:36:17;19.10;79.60
4306;DHT22;2166;49.926;8.608;2022-10-15T11:38:48;18.90;79.70
4306;DHT22;2166;49.926;8.608;2022-10-15T11:41:23;18.90;80.10
4306;DHT22;2166;49.926;8.608;2022-10-15T11:46:41;18.50;80.60
4306;DHT22;2166;49.926;8.608;2022-10-15T11:49:16;18.50;80.70
4306;DHT22;2166;49.926;8.608;2022-10-15T11:51:49;18.50;80.90
4306;DHT22;2166;49.926;8.608;2022-10-15T11:54:25;18.50;80.90
4306;DHT22;2166;49.926;8.608;2022-10-15T11:56:55;18.50;80.40
4306;DHT22;2166;49.926;8.608;2022-10-15T11:59:28;18.50;80.40
4306;DHT22;2166;49.926;8.608;2022-10-15T12:02:00;18.40;80.50
4306;DHT22;2166;49.926;8.608;2022-10-15T12:04:31;18.40;80.70
4306;DHT22;2166;49.926;8.608;2022-10-15T12:07:02;18.30;80.90
4306;DHT22;2166;49.926;8.608;2022-10-15T12:09:33;18.20;81.20
4306;DHT22;2166;49.926;8.608;2022-10-15T12:12:03;18.20;81.20
4306;DHT22;2166;49.926;8.608;2022-10-15T12:14:34;18.10;81.40
4306;DHT22;2166;49.926;8.608;2022-10-15T12:17:10;18.10;81.40
4306;DHT22;2166;49.926;8.608;2022-10-15T12:19:43;18.10;81.30
4306;DHT22;2166;49.926;8.608;2022-10-15T12:22:13;18.10;81.30
4306;DHT22;2166;49.926;8.608;2022-10-15T12:24:59;18.10;81.20
4306;DHT22;2166;49.926;8.608;2022-10-15T12:27:29;18.10;81.20
4306;DHT22;2166;49.926;8.608;2022-10-15T12:30:10;18.10;81.20
4306;DHT22;2166;49.926;8.608;2022-10-15T12:32:40;18.20;81.20
4306;DHT22;2166;49.926;8.608;2022-10-15T12:35:17;18.40;80.90
4306;DHT22;2166;49.926;8.608;2022-10-15T12:37:52;18.50;80.50
4306;DHT22;2166;49.926;8.608;2022-10-15T12:40:25;18.30;80.50
4306;DHT22;2166;49.926;8.608;2022-10-15T12:42:54;18.30;80.80
4306;DHT22;2166;49.926;8.608;2022-10-15T12:45:28;18.20;80.90
4306;DHT22;2166;49.926;8.608;2022-10-15T12:48:18;18.30;80.90
4306;DHT22;2166;49.926;8.608;2022-10-15T12:50:46;18.50;80.60
4306;DHT22;2166;49.926;8.608;2022-10-15T12:53:30;18.50;80.50
4306;DHT22;2166;49.926;8.608;2022-10-15T12:56:18;18.40;80.60
4306;DHT22;2166;49.926;8.608;2022-10-15T12:58:47;18.30;80.70
4306;DHT22;2166;49.926;8.608;2022-10-15T13:01:29;18.30;80.90
4306;DHT22;2166;49.926;8.608;2022-10-15T13:04:18;18.40;80.90
4306;DHT22;2166;49.926;8.608;2022-10-15T13:06:46;18.30;81.00
4306;DHT22;2166;49.926;8.608;2022-10-15T13:09:20;18.30;81.10
4306;DHT22;2166;49.926;8.608;2022-10-15T13:11:49;18.30;81.00
4306;DHT22;2166;49.926;8.608;2022-10-15T13:17:13;18.20;81.00
4306;DHT22;2166;49.926;8.608;2022-10-15T13:19:47;18.20;81.20
4306;DHT22;2166;49.926;8.608;2022-10-15T13:22:19;18.10;81.10
4306;DHT22;2166;49.926;8.608;2022-10-15T13:24:48;18.10;81.20
4306;DHT22;2166;49.926;8.608;2022-10-15T13:27:20;18.20;81.10
4306;DHT22;2166;49.926;8.608;2022-10-15T13:29:52;18.20;80.80
4306;DHT22;2166;49.926;8.608;2022-10-15T13:32:21;18.30;80.60
4306;DHT22;2166;49.926;8.608;2022-10-15T13:34:51;18.30;80.40
4306;DHT22;2166;49.926;8.608;2022-10-15T13:37:23;18.30;80.60
4306;DHT22;2166;49.926;8.608;2022-10-15T13:39:53;18.30;80.60
4306;DHT22;2166;49.926;8.608;2022-10-15T13:42:23;18.20;80.70
4306;DHT22;2166;49.926;8.608;2022-10-15T13:44:55;18.20;80.80
4306;DHT22;2166;49.926;8.608;2022-10-15T13:47:24;18.10;80.80
4306;DHT22;2166;49.926;8.608;2022-10-15T13:52:38;18.10;80.60
4306;DHT22;2166;49.926;8.608;2022-10-15T13:55:11;18.00;80.60
4306;DHT22;2166;49.926;8.608;2022-10-15T13:57:43;18.10;80.50
4306;DHT22;2166;49.926;8.608;2022-10-15T14:00:18;18.10;80.30
4306;DHT22;2166;49.926;8.608;2022-10-15T14:05:30;18.10;80.40
4306;DHT22;2166;49.926;8.608;2022-10-15T14:08:00;18.10;80.40
4306;DHT22;2166;49.926;8.608;2022-10-15T14:10:28;18.10;80.40
4306;DHT22;2166;49.926;8.608;2022-10-15T14:12:56;18.10;80.30
4306;DHT22;2166;49.926;8.608;2022-10-15T14:15:43;18.00;80.20
4306;DHT22;2166;49.926;8.608;2022-10-15T14:18:13;18.10;80.40
4306;DHT22;2166;49.926;8.608;2022-10-15T14:20:44;18.10;80.40
4306;DHT22;2166;49.926;8.608;2022-10-15T14:23:15;18.10;80.40
4306;DHT22;2166;49.926;8.608;2022-10-15T14:25:43;18.10;80.40
4306;DHT22;2166;49.926;8.608;2022-10-15T14:28:16;18.00;80.40
4306;DHT22;2166;49.926;8.608;2022-10-15T14:30:45;18.00;80.40
4306;DHT22;2166;49.926;8.608;2022-10-15T14:33:29;18.00;80.70
4306;DHT22;2166;49.926;8.608;2022-10-15T14:36:06;18.00;80.90
4306;DHT22;2166;49.926;8.608;2022-10-15T14:38:35;17.90;81.20
4306;DHT22;2166;49.926;8.608;2022-10-15T14:41:04;17.90;81.30
4306;DHT22;2166;49.926;8.608;2022-10-15T14:43:35;17.90;81.40
4306;DHT22;2166;49.926;8.608;2022-10-15T14:46:12;17.90;81.30
4306;DHT22;2166;49.926;8.608;2022-10-15T14:48:42;18.00;81.20
4306;DHT22;2166;49.926;8.608;2022-10-15T14:51:11;18.00;81.20
4306;DHT22;2166;49.926;8.608;2022-10-15T14:53:43;18.20;81.00
4306;DHT22;2166;49.926;8.608;2022-10-15T14:56:13;18.30;80.80
4306;DHT22;2166;49.926;8.608;2022-10-15T14:58:46;18.30;80.60
4306;DHT22;2166;49.926;8.608;2022-10-15T15:01:19;18.30;80.40
4306;DHT22;2166;49.926;8.608;2022-10-15T15:03:48;18.30;80.50
4306;DHT22;2166;49.926;8.608;2022-10-15T15:06:16;18.30;80.50
4306;DHT22;2166;49.926;8.608;2022-10-15T15:08:46;18.40;80.50
4306;DHT22;2166;49.926;8.608;2022-10-15T15:11:18;18.30;80.40
4306;DHT22;2166;49.926;8.608;2022-10-15T15:13:47;18.20;80.50
4306;DHT22;2166;49.926;8.608;2022-10-15T15:16:17;18.20;80.60
4306;DHT22;2166;49.926;8.608;2022-10-15T15:18:45;18.10;80.70
4306;DHT22;2166;49.926;8.608;2022-10-15T15:21:15;18.10;80.80
4306;DHT22;2166;49.926;8.608;2022-10-15T15:23:50;18.10;80.90
4306;DHT22;2166;49.926;8.608;2022-10-15T15:26:18;18.00;81.00
4306;DHT22;2166;49.926;8.608;2022-10-15T15:28:46;18.00;81.00
4306;DHT22;2166;49.926;8.608;2022-10-15T15:31:15;18.00;80.90
4306;DHT22;2166;49.926;8.608;2022-10-15T15:33:43;18.00;81.00
4306;DHT22;2166;49.926;8.608;2022-10-15T15:36:12;18.00;81.10
4306;DHT22;2166;49.926;8.608;2022-10-15T15:38:49;17.90;81.20
4306;DHT22;2166;49.926;8.608;2022-10-15T15:41:18;17.80;81.30
4306;DHT22;2166;49.926;8.608;2022-10-15T15:43:46;17.80;81.40
4306;DHT22;2166;49.926;8.608;2022-10-15T15:46:14;17.90;81.30
4306;DHT22;2166;49.926;8.608;2022-10-15T15:48:43;17.80;81.20
4306;DHT22;2166;49.926;8.608;2022-10-15T15:51:16;17.80;81.30
4306;DHT22;2166;49.926;8.608;2022-10-15T15:53:46;17.70;81.30
4306;DHT22;2166;49.926;8.608;2022-10-15T15:56:15;17.70;81.40
4306;DHT22;2166;49.926;8.608;2022-10-15T15:58:43;17.70;81.40
4306;DHT22;2166;49.926;8.608;2022-10-15T16:01:12;17.70;81.50
4306;DHT22;2166;49.926;8.608;2022-10-15T16:03:40;17.60;81.60
4306;DHT22;2166;49.926;8.608;2022-10-15T16:06:08;17.60;81.60
4306;DHT22;2166;49.926;8.608;2022-10-15T16:08:35;17.50;81.80
4306;DHT22;2166;49.926;8.608;2022-10-15T16:11:04;17.40;82.00
4306;DHT22;2166;49.926;8.608;2022-10-15T16:13:34;17.30;82.20
4306;DHT22;2166;49.926;8.608;2022-10-15T16:16:02;17.30;82.40
4306;DHT22;2166;49.926;8.608;2022-10-15T16:18:30;17.20;82.50
4306;DHT22;2166;49.926;8.608;2022-10-15T16:20:58;17.20;82.50
4306;DHT22;2166;49.926;8.608;2022-10-15T16:23:25;17.20;82.50
4306;DHT22;2166;49.926;8.608;2022-10-15T16:25:53;17.10;82.60
4306;DHT22;2166;49.926;8.608;2022-10-15T16:28:23;17.10;82.70
4306;DHT22;2166;49.926;8.608;2022-10-15T16:30:52;17.10;82.70
4306;DHT22;2166;49.926;8.608;2022-10-15T16:33:20;17.00;82.80
4306;DHT22;2166;49.926;8.608;2022-10-15T16:35:50;17.00;82.80
4306;DHT22;2166;49.926;8.608;2022-10-15T16:38:18;17.00;83.00
4306;DHT22;2166;49.926;8.608;2022-10-15T16:40:45;17.00;82.90
4306;DHT22;2166;49.926;8.608;2022-10-15T16:43:13;17.00;82.90
4306;DHT22;2166;49.926;8.608;2022-10-15T16:45:41;16.90;82.90